Time;durP1;ratioP1;P1;durP2;ratioP2;P2;SDS_P1;SDS_P2;PMS_P1;PMS_P2;Temp;Humidity;BMP_temperature;BMP_pressure;BME280_temperature;BME280_humidity;BME280_pressure;Samples;Min_cycle;Max_cycle;Signal;HPM_P1;HPM_P2
2023/05/07 00:01:11;;;;;;;8.77;4.80;;;;;;;;;;5082276;28;20036;-65
2023/05/07 00:03:41;;;;;;;11.75;6.45;;;;;;;;;;5079963;28;20419;-65
2023/05/07 00:06:12;;;;;;;14.55;5.70;;;;;;;;;;5079996;28;20120;-64
2023/05/07 00:08:42;;;;;;;10.60;5.63;;;;;;;;;;5079604;28;20052;-64
2023/05/07 00:11:12;;;;;;;10.52;5.60;;;;;;;;;;5071444;28;20052;-65
2023/05/07 00:13:42;;;;;;;11.18;5.15;;;;;;;;;;5080925;28;20052;-65
2023/05/07 00:16:12;;;;;;;9.48;5.15;;;;;;;;;;5095984;27;20422;-65
2023/05/07 00:18:44;;;;;;;10.15;5.10;;;;;;;;;;5131964;27;20057;-65
2023/05/07 00:21:15;;;;;;;9.85;5.20;;;;;;;;;;5081392;27;20550;-65
2023/05/07 00:23:45;;;;;;;9.77;5.18;;;;;;;;;;5134566;27;20055;-65
2023/05/07 00:26:16;;;;;;;11.20;5.65;;;;;;;;;;5088720;28;20115;-65
2023/05/07 00:28:49;;;;;;;9.88;5.63;;;;;;;;;;5091146;28;20419;-65
2023/05/07 00:31:19;;;;;;;10.80;5.18;;;;;;;;;;5050099;28;20052;-65
2023/05/07 00:33:49;;;;;;;10.40;5.15;;;;;;;;;;5050146;28;20056;-65
2023/05/07 00:36:20;;;;;;;10.02;5.13;;;;;;;;;;4997581;28;20061;-65
2023/05/07 00:38:50;;;;;;;10.35;5.78;;;;;;;;;;4982063;28;20087;-65
2023/05/07 00:41:20;;;;;;;12.57;5.80;;;;;;;;;;5030746;28;20053;-65
2023/05/07 00:43:51;;;;;;;11.98;5.78;;;;;;;;;;5031015;28;20061;-65
2023/05/07 00:46:22;;;;;;;13.27;5.68;;;;;;;;;;5030861;28;20057;-65
2023/05/07 00:48:52;;;;;;;11.00;5.60;;;;;;;;;;5026629;28;20050;-65
2023/05/07 00:51:23;;;;;;;13.38;5.43;;;;;;;;;;5011035;28;20082;-65
2023/05/07 00:53:54;;;;;;;13.82;6.35;;;;;;;;;;4978158;28;20070;-65
2023/05/07 00:56:25;;;;;;;13.65;5.78;;;;;;;;;;5010427;28;20076;-65
2023/05/07 00:58:55;;;;;;;12.90;5.63;;;;;;;;;;4994631;28;20058;-65
2023/05/07 01:01:26;;;;;;;11.88;6.72;;;;;;;;;;4977936;28;20094;-65
2023/05/07 01:03:57;;;;;;;12.30;5.68;;;;;;;;;;5031045;28;20060;-64
2023/05/07 01:06:30;;;;;;;11.80;6.38;;;;;;;;;;5050060;28;20064;-65
2023/05/07 01:09:01;;;;;;;16.75;6.57;;;;;;;;;;5010928;28;20056;-65
2023/05/07 01:11:32;;;;;;;10.02;5.68;;;;;;;;;;5020285;28;20059;-65
2023/05/07 01:14:02;;;;;;;10.68;6.15;;;;;;;;;;5080696;28;20056;-65
2023/05/07 01:16:33;;;;;;;11.50;5.65;;;;;;;;;;5049885;28;20064;-65
2023/05/07 01:19:04;;;;;;;10.95;5.50;;;;;;;;;;5030019;28;20053;-65
2023/05/07 01:21:37;;;;;;;17.98;5.90;;;;;;;;;;5030313;28;20056;-64
2023/05/07 01:24:08;;;;;;;11.55;5.75;;;;;;;;;;4990750;28;20057;-64
2023/05/07 01:26:39;;;;;;;12.18;5.30;;;;;;;;;;4967440;28;20519;-65
2023/05/07 01:29:09;;;;;;;9.82;5.72;;;;;;;;;;4951886;29;20051;-65
2023/05/07 01:31:42;;;;;;;11.65;5.22;;;;;;;;;;4928968;29;20550;-65
2023/05/07 01:34:13;;;;;;;;;;;;;;;;;;4914315;29;20060;-64
2023/05/07 01:36:44;;;;;;;8.68;4.70;;;;;;;;;;4913644;29;19923;-64
2023/05/07 01:39:15;;;;;;;13.65;5.15;;;;;;;;;;4913672;29;20060;-64
2023/05/07 01:41:47;;;;;;;11.38;5.05;;;;;;;;;;4913528;29;20055;-64
2023/05/07 01:44:18;;;;;;;9.50;5.40;;;;;;;;;;4957659;28;20055;-65
2023/05/07 01:46:49;;;;;;;12.85;5.90;;;;;;;;;;4912528;29;20445;-64
2023/05/07 01:49:20;;;;;;;10.52;6.10;;;;;;;;;;4915252;29;20099;-64
2023/05/07 01:51:50;;;;;;;13.80;5.97;;;;;;;;;;4951198;28;20099;-64
2023/05/07 01:54:29;;;;;;;12.73;5.28;;;;;;;;;;4951181;28;20163;-64
2023/05/07 01:57:02;;;;;;;13.23;6.35;;;;;;;;;;4998849;28;20437;-64
2023/05/07 01:59:32;;;;;;;13.40;6.78;;;;;;;;;;4990180;28;20047;-64
2023/05/07 02:02:02;;;;;;;12.65;7.15;;;;;;;;;;4939165;28;20163;-64
2023/05/07 02:04:35;;;;;;;12.88;6.55;;;;;;;;;;4866441;29;20056;-64
2023/05/07 02:07:05;;;;;;;13.00;7.18;;;;;;;;;;4912770;29;20059;-64
2023/05/07 02:09:35;;;;;;;15.35;7.47;;;;;;;;;;4851937;29;20062;-64
2023/05/07 02:12:06;;;;;;;12.50;7.20;;;;;;;;;;4804732;29;20538;-64
2023/05/07 02:14:36;;;;;;;15.38;6.70;;;;;;;;;;4834329;29;20474;-64
2023/05/07 02:17:06;;;;;;;13.57;6.18;;;;;;;;;;4834332;29;20043;-64
2023/05/07 02:19:37;;;;;;;12.43;6.65;;;;;;;;;;4804436;29;20059;-64
2023/05/07 02:22:08;;;;;;;12.10;6.13;;;;;;;;;;4785173;29;20062;-64
2023/05/07 02:24:38;;;;;;;16.17;6.43;;;;;;;;;;4765778;30;20067;-64
2023/05/07 02:27:08;;;;;;;9.90;6.13;;;;;;;;;;4765619;30;20114;-64
2023/05/07 02:29:39;;;;;;;13.93;6.15;;;;;;;;;;4757429;30;20773;-65
2023/05/07 02:32:09;;;;;;;12.05;6.18;;;;;;;;;;4747491;30;20063;-64
2023/05/07 02:34:39;;;;;;;12.82;6.50;;;;;;;;;;4735860;30;20428;-64
2023/05/07 02:37:09;;;;;;;16.58;6.88;;;;;;;;;;4775477;29;20065;-64
2023/05/07 02:39:39;;;;;;;12.80;6.90;;;;;;;;;;4820269;29;20189;-64
2023/05/07 02:42:09;;;;;;;12.25;7.18;;;;;;;;;;4827724;29;20722;-64
2023/05/07 02:44:40;;;;;;;12.98;6.45;;;;;;;;;;4845696;29;20064;-63
2023/05/07 02:47:12;;;;;;;14.02;5.78;;;;;;;;;;4858951;29;20056;-65
2023/05/07 02:49:44;;;;;;;11.40;6.18;;;;;;;;;;4862372;29;20056;-64
2023/05/07 02:52:14;;;;;;;10.98;6.25;;;;;;;;;;4877480;29;20053;-63
2023/05/07 02:54:44;;;;;;;10.68;6.13;;;;;;;;;;4846808;29;20058;-64
2023/05/07 02:57:14;;;;;;;13.00;6.07;;;;;;;;;;4848153;29;20065;-64
2023/05/07 02:59:45;;;;;;;14.32;6.47;;;;;;;;;;4864566;29;20053;-64
2023/05/07 03:02:16;;;;;;;10.52;6.20;;;;;;;;;;4874455;29;20102;-64
2023/05/07 03:04:46;;;;;;;10.75;6.47;;;;;;;;;;4855614;29;20061;-64
2023/05/07 03:07:16;;;;;;;11.38;7.03;;;;;;;;;;4864787;29;20057;-64
2023/05/07 03:09:46;;;;;;;12.52;6.57;;;;;;;;;;4891839;29;20063;-64
2023/05/07 03:12:16;;;;;;;11.52;6.22;;;;;;;;;;4911606;29;20088;-64
2023/05/07 03:14:46;;;;;;;12.20;5.50;;;;;;;;;;4911829;29;20137;-64
2023/05/07 03:17:17;;;;;;;13.27;6.25;;;;;;;;;;4911586;29;20526;-64
2023/05/07 03:19:48;;;;;;;14.07;5.85;;;;;;;;;;4883374;29;20057;-64
2023/05/07 03:22:18;;;;;;;11.70;6.07;;;;;;;;;;4892815;29;20053;-64
2023/05/07 03:24:48;;;;;;;12.15;6.00;;;;;;;;;;4873886;29;20075;-64
2023/05/07 03:27:18;;;;;;;13.90;5.65;;;;;;;;;;4855475;29;20050;-64
2023/05/07 03:29:48;;;;;;;11.60;5.72;;;;;;;;;;4844954;29;20073;-65
2023/05/07 03:32:18;;;;;;;8.77;5.72;;;;;;;;;;4853420;29;20064;-64
2023/05/07 03:34:48;;;;;;;10.98;5.68;;;;;;;;;;4855116;29;20049;-64
2023/05/07 03:37:19;;;;;;;11.32;6.03;;;;;;;;;;4858086;29;20053;-64
2023/05/07 03:39:49;;;;;;;10.93;6.20;;;;;;;;;;4858745;29;20541;-64
2023/05/07 03:42:20;;;;;;;10.80;6.07;;;;;;;;;;4882309;29;20061;-64
2023/05/07 03:44:52;;;;;;;14.52;6.30;;;;;;;;;;4864813;29;20064;-64
2023/05/07 03:47:23;;;;;;;12.27;6.60;;;;;;;;;;4855622;29;20078;-65
2023/05/07 03:49:54;;;;;;;16.52;7.25;;;;;;;;;;4845874;29;20476;-65
2023/05/07 03:52:25;;;;;;;10.88;6.10;;;;;;;;;;4855257;29;20053;-64
2023/05/07 03:54:58;;;;;;;14.95;6.50;;;;;;;;;;4807054;29;20058;-65
2023/05/07 03:57:29;;;;;;;12.30;6.10;;;;;;;;;;4873840;29;20049;-65
2023/05/07 04:00:00;;;;;;;17.83;6.50;;;;;;;;;;4892452;29;20053;-64
2023/05/07 04:02:35;;;;;;;11.65;6.43;;;;;;;;;;4835471;29;20060;-64
2023/05/07 04:05:06;;;;;;;12.68;6.10;;;;;;;;;;4828586;29;20068;-65
2023/05/07 04:07:38;;;;;;;14.90;6.28;;;;;;;;;;4883919;29;20528;-65
2023/05/07 04:10:10;;;;;;;14.25;6.43;;;;;;;;;;4919103;29;20048;-65
2023/05/07 04:12:44;;;;;;;18.45;6.78;;;;;;;;;;4858924;29;20538;-64
2023/05/07 04:15:18;;;;;;;10.82;6.22;;;;;;;;;;4891942;29;20091;-64
2023/05/07 04:17:49;;;;;;;12.70;6.22;;;;;;;;;;4911204;29;20056;-64
2023/05/07 04:20:21;;;;;;;13.15;6.40;;;;;;;;;;4909972;29;20065;-64
2023/05/07 04:22:58;;;;;;;13.80;6.22;;;;;;;;;;4902848;29;20587;-64
2023/05/07 04:25:29;;;;;;;14.18;6.60;;;;;;;;;;4907090;29;20052;-64
2023/05/07 04:28:07;;;;;;;;;;;;;;;;;;4908228;28;20103;-64
2023/05/07 04:30:38;;;;;;;14.20;6.50;;;;;;;;;;4896645;29;20404;-64
2023/05/07 04:33:09;;;;;;;16.75;6.72;;;;;;;;;;4932687;29;20063;-65
2023/05/07 04:35:41;;;;;;;12.35;6.30;;;;;;;;;;4938681;28;20047;-63
2023/05/07 04:38:11;;;;;;;15.20;6.60;;;;;;;;;;4938813;28;20070;-65
2023/05/07 04:40:42;;;;;;;12.85;6.50;;;;;;;;;;4926851;29;20051;-64
2023/05/07 04:43:16;;;;;;;14.73;6.93;;;;;;;;;;4971784;28;20046;-65
2023/05/07 04:45:52;;;;;;;11.20;6.60;;;;;;;;;;4931455;28;20047;-64
2023/05/07 04:48:26;;;;;;;12.88;6.78;;;;;;;;;;4922761;29;20048;-64
2023/05/07 04:50:56;;;;;;;13.90;6.18;;;;;;;;;;4937517;28;20055;-64
2023/05/07 04:53:26;;;;;;;13.75;6.53;;;;;;;;;;4907870;29;20056;-64
2023/05/07 04:55:58;;;;;;;10.35;6.03;;;;;;;;;;4888330;29;20052;-64
2023/05/07 04:58:35;;;;;;;14.57;6.95;;;;;;;;;;4913743;29;20051;-65
2023/05/07 05:01:06;;;;;;;12.48;6.93;;;;;;;;;;4891404;29;20556;-65
2023/05/07 05:03:39;;;;;;;14.05;6.07;;;;;;;;;;4903244;29;20401;-65
2023/05/07 05:06:10;;;;;;;11.30;5.93;;;;;;;;;;4937549;28;20556;-64
2023/05/07 05:08:40;;;;;;;14.98;6.13;;;;;;;;;;4902105;29;20064;-64
2023/05/07 05:11:11;;;;;;;14.23;6.97;;;;;;;;;;4920824;29;20055;-64
2023/05/07 05:13:41;;;;;;;12.63;7.22;;;;;;;;;;4917462;29;20112;-64
2023/05/07 05:16:18;;;;;;;12.82;6.93;;;;;;;;;;4913824;29;20063;-64
2023/05/07 05:18:49;;;;;;;14.90;6.53;;;;;;;;;;4916400;29;20553;-64
2023/05/07 05:21:20;;;;;;;16.00;6.68;;;;;;;;;;4913562;29;20405;-64
2023/05/07 05:23:54;;;;;;;12.48;6.35;;;;;;;;;;4925368;29;20048;-64
2023/05/07 05:26:26;;;;;;;13.68;6.75;;;;;;;;;;4890214;29;20060;-65
2023/05/07 05:28:56;;;;;;;14.02;6.75;;;;;;;;;;4864388;29;20057;-65
2023/05/07 05:31:29;;;;;;;11.77;7.82;;;;;;;;;;4842101;29;20109;-65
2023/05/07 05:33:59;;;;;;;13.85;6.78;;;;;;;;;;4887217;29;20053;-65
2023/05/07 05:36:29;;;;;;;13.13;7.35;;;;;;;;;;4865114;29;20066;-64
2023/05/07 05:38:59;;;;;;;17.38;6.80;;;;;;;;;;4828066;29;20069;-65
2023/05/07 05:41:29;;;;;;;13.27;6.55;;;;;;;;;;4838743;29;20427;-64
2023/05/07 05:43:59;;;;;;;12.63;6.82;;;;;;;;;;4856194;29;20053;-64
2023/05/07 05:46:30;;;;;;;14.05;6.60;;;;;;;;;;4841852;29;20049;-64
2023/05/07 05:49:03;;;;;;;15.10;7.05;;;;;;;;;;4857190;29;20050;-64
2023/05/07 05:51:34;;;;;;;12.63;6.82;;;;;;;;;;4854616;29;20412;-65
2023/05/07 05:54:04;;;;;;;16.45;6.65;;;;;;;;;;4823353;29;20066;-64
2023/05/07 05:56:34;;;;;;;12.80;7.13;;;;;;;;;;4856962;29;20759;-64
2023/05/07 05:59:05;;;;;;;13.60;7.10;;;;;;;;;;4885226;29;20390;-64
2023/05/07 06:01:36;;;;;;;15.50;6.38;;;;;;;;;;4872351;29;20513;-64
2023/05/07 06:04:06;;;;;;;16.10;7.70;;;;;;;;;;4921380;29;20555;-64
2023/05/07 06:06:36;;;;;;;14.32;7.03;;;;;;;;;;4932023;28;20063;-64
2023/05/07 06:09:06;;;;;;;11.63;6.53;;;;;;;;;;4951440;28;20177;-64
2023/05/07 06:11:41;;;;;;;14.00;6.88;;;;;;;;;;4970449;28;20054;-64
2023/05/07 06:14:13;;;;;;;12.07;6.28;;;;;;;;;;4979386;28;20047;-64
2023/05/07 06:16:44;;;;;;;11.27;6.82;;;;;;;;;;4989385;28;20411;-64
2023/05/07 06:19:14;;;;;;;13.32;6.05;;;;;;;;;;4970190;28;20055;-64
2023/05/07 06:21:44;;;;;;;10.68;6.45;;;;;;;;;;4930935;28;20063;-64
2023/05/07 06:24:14;;;;;;;14.27;6.28;;;;;;;;;;4931540;29;20047;-64
2023/05/07 06:26:44;;;;;;;13.00;6.82;;;;;;;;;;4931238;29;20067;-65
2023/05/07 06:29:15;;;;;;;14.65;6.22;;;;;;;;;;4928914;29;20058;-64
2023/05/07 06:31:46;;;;;;;13.82;7.07;;;;;;;;;;4912192;29;20055;-66
2023/05/07 06:34:16;;;;;;;12.05;6.65;;;;;;;;;;4903414;29;20544;-64
2023/05/07 06:36:46;;;;;;;14.75;6.25;;;;;;;;;;4935734;28;20060;-63
2023/05/07 06:39:34;;;;;;;11.80;6.75;;;;;;;;;;4900864;29;20413;-65
2023/05/07 06:42:04;;;;;;;17.10;6.63;;;;;;;;;;4923924;29;20047;-64
2023/05/07 06:44:41;;;;;;;14.65;6.93;;;;;;;;;;4916094;29;20067;-64
2023/05/07 06:47:14;;;;;;;12.07;6.80;;;;;;;;;;4927105;29;20420;-65
2023/05/07 06:49:47;;;;;;;12.00;5.72;;;;;;;;;;4924623;29;20059;-64
2023/05/07 06:52:19;;;;;;;9.85;6.03;;;;;;;;;;4904552;28;20060;-64
2023/05/07 06:54:51;;;;;;;10.63;6.00;;;;;;;;;;4914270;29;20040;-63
2023/05/07 06:57:24;;;;;;;9.63;5.43;;;;;;;;;;4880209;29;20064;-64
2023/05/07 06:59:54;;;;;;;11.20;6.00;;;;;;;;;;4892598;29;20044;-64
2023/05/07 07:02:24;;;;;;;13.65;6.50;;;;;;;;;;4893506;29;20087;-64
2023/05/07 07:04:55;;;;;;;12.77;6.13;;;;;;;;;;4912002;29;20051;-64
2023/05/07 07:07:27;;;;;;;16.73;6.32;;;;;;;;;;4893167;29;20668;-64
2023/05/07 07:09:57;;;;;;;10.10;6.00;;;;;;;;;;4906510;29;20826;-64
2023/05/07 07:12:30;;;;;;;14.45;6.25;;;;;;;;;;4911981;29;20051;-64
2023/05/07 07:15:00;;;;;;;14.15;6.43;;;;;;;;;;4909789;29;20059;-64
2023/05/07 07:17:30;;;;;;;15.18;6.97;;;;;;;;;;4877676;29;20053;-64
2023/05/07 07:20:00;;;;;;;14.80;6.55;;;;;;;;;;4887797;29;20063;-64
2023/05/07 07:22:31;;;;;;;12.88;6.00;;;;;;;;;;4843403;29;20201;-65
2023/05/07 07:25:02;;;;;;;14.63;6.25;;;;;;;;;;4884218;29;20056;-65
2023/05/07 07:27:32;;;;;;;13.35;6.05;;;;;;;;;;4899504;29;20059;-64
2023/05/07 07:30:02;;;;;;;19.52;7.43;;;;;;;;;;4892861;29;20180;-64
2023/05/07 07:32:35;;;;;;;13.65;7.03;;;;;;;;;;4873761;29;20407;-64
2023/05/07 07:35:06;;;;;;;19.00;6.53;;;;;;;;;;4892007;29;20069;-64
2023/05/07 07:37:37;;;;;;;15.25;5.95;;;;;;;;;;4874203;29;20084;-64
2023/05/07 07:40:08;;;;;;;17.17;6.45;;;;;;;;;;4889346;29;20061;-64
2023/05/07 07:42:38;;;;;;;18.05;6.35;;;;;;;;;;4855273;29;20053;-64
2023/05/07 07:45:09;;;;;;;13.55;6.97;;;;;;;;;;4864838;29;20077;-64
2023/05/07 07:47:43;;;;;;;18.77;7.00;;;;;;;;;;4892877;29;20056;-63
2023/05/07 07:50:14;;;;;;;12.80;6.25;;;;;;;;;;4892582;29;20060;-64
2023/05/07 07:53:00;;;;;;;12.10;6.35;;;;;;;;;;4892644;29;20056;-63
2023/05/07 07:55:31;;;;;;;14.60;6.50;;;;;;;;;;4911066;29;20048;-64
2023/05/07 07:58:02;;;;;;;16.02;6.10;;;;;;;;;;4898911;29;20051;-64
2023/05/07 08:00:32;;;;;;;13.18;6.57;;;;;;;;;;4887137;29;20057;-63
2023/05/07 08:03:03;;;;;;;14.98;6.75;;;;;;;;;;4892177;29;20048;-64
2023/05/07 08:05:38;;;;;;;10.82;6.30;;;;;;;;;;4867542;29;20060;-64
2023/05/07 08:08:09;;;;;;;10.93;6.45;;;;;;;;;;4876553;29;20050;-64
2023/05/07 08:10:42;;;;;;;12.20;6.80;;;;;;;;;;4846187;29;20065;-64
2023/05/07 08:13:19;;;;;;;11.82;6.93;;;;;;;;;;4822092;29;20058;-64
2023/05/07 08:15:49;;;;;;;12.95;6.40;;;;;;;;;;4840341;29;20462;-64
2023/05/07 08:18:20;;;;;;;16.58;6.75;;;;;;;;;;4879918;29;20056;-64
2023/05/07 08:20:51;;;;;;;11.35;6.00;;;;;;;;;;4914298;29;20060;-64
2023/05/07 08:23:24;;;;;;;11.43;6.20;;;;;;;;;;4899344;29;20057;-64
2023/05/07 08:25:54;;;;;;;12.65;6.72;;;;;;;;;;4917626;29;20528;-64
2023/05/07 08:28:26;;;;;;;15.52;6.78;;;;;;;;;;4901268;29;20053;-64
2023/05/07 08:31:00;;;;;;;13.20;7.30;;;;;;;;;;4914524;29;20113;-64
2023/05/07 08:33:35;;;;;;;14.77;6.97;;;;;;;;;;4899703;29;20049;-63
2023/05/07 08:36:06;;;;;;;12.88;6.18;;;;;;;;;;4876956;29;20498;-64
2023/05/07 08:38:37;;;;;;;11.05;6.38;;;;;;;;;;4908063;29;20056;-64
2023/05/07 08:41:09;;;;;;;11.73;6.32;;;;;;;;;;4926996;29;20053;-65
2023/05/07 08:43:42;;;;;;;17.10;6.88;;;;;;;;;;4914351;29;20048;-64
2023/05/07 08:46:14;;;;;;;14.40;6.97;;;;;;;;;;4901852;29;20053;-64
2023/05/07 08:48:49;;;;;;;14.80;7.07;;;;;;;;;;4911530;29;20063;-64
2023/05/07 08:51:21;;;;;;;14.90;7.53;;;;;;;;;;4883654;29;20045;-65
2023/05/07 08:53:52;;;;;;;15.10;7.22;;;;;;;;;;4864744;29;20065;-63
2023/05/07 08:56:27;;;;;;;13.48;6.60;;;;;;;;;;4888969;29;20049;-64
2023/05/07 08:58:59;;;;;;;14.27;7.38;;;;;;;;;;4876561;29;20049;-64
2023/05/07 09:01:30;;;;;;;13.63;7.07;;;;;;;;;;4872680;29;20059;-64
2023/05/07 09:04:01;;;;;;;13.98;7.15;;;;;;;;;;4845758;29;20061;-64
2023/05/07 09:06:31;;;;;;;15.63;7.82;;;;;;;;;;4845710;29;20414;-64
2023/05/07 09:09:04;;;;;;;14.95;6.65;;;;;;;;;;4864078;29;20064;-64
2023/05/07 09:11:36;;;;;;;12.75;6.90;;;;;;;;;;4871405;29;20065;-64
2023/05/07 09:14:07;;;;;;;11.50;6.82;;;;;;;;;;4842948;29;20058;-64
2023/05/07 09:16:42;;;;;;;14.43;7.70;;;;;;;;;;4861578;29;20105;-65
2023/05/07 09:19:12;;;;;;;15.13;7.38;;;;;;;;;;4864060;29;20144;-65
2023/05/07 09:21:46;;;;;;;14.70;6.45;;;;;;;;;;4870760;29;20058;-64
2023/05/07 09:24:16;;;;;;;10.50;6.35;;;;;;;;;;4894736;29;20061;-64
2023/05/07 09:26:47;;;;;;;13.13;7.60;;;;;;;;;;4849383;29;20115;-64
2023/05/07 09:29:19;;;;;;;11.68;7.13;;;;;;;;;;4860760;29;20057;-64
2023/05/07 09:31:49;;;;;;;11.40;6.65;;;;;;;;;;4885953;29;20056;-64
2023/05/07 09:34:19;;;;;;;14.18;6.80;;;;;;;;;;4899330;29;20541;-64
2023/05/07 09:36:50;;;;;;;13.00;6.43;;;;;;;;;;4894012;29;20060;-65
2023/05/07 09:39:20;;;;;;;13.82;6.82;;;;;;;;;;4894576;29;20044;-64
2023/05/07 09:41:54;;;;;;;13.45;6.05;;;;;;;;;;4932316;29;20067;-63
2023/05/07 09:44:32;;;;;;;11.55;6.57;;;;;;;;;;4920616;29;20517;-64
2023/05/07 09:47:08;;;;;;;15.25;6.43;;;;;;;;;;4897694;29;20064;-64
2023/05/07 09:49:48;;;;;;;15.32;7.00;;;;;;;;;;4881950;29;20084;-64
2023/05/07 09:52:22;;;;;;;12.95;6.57;;;;;;;;;;4871790;29;20049;-62
2023/05/07 09:54:57;;;;;;;12.15;6.30;;;;;;;;;;4875426;29;20060;-63
2023/05/07 09:57:30;;;;;;;12.85;6.78;;;;;;;;;;4856887;29;20061;-63
2023/05/07 10:00:09;;;;;;;13.15;7.20;;;;;;;;;;4856727;29;20144;-64
2023/05/07 10:02:51;;;;;;;10.80;6.63;;;;;;;;;;4856692;29;20728;-63
2023/05/07 10:05:30;;;;;;;14.98;6.40;;;;;;;;;;4838015;29;20050;-63
2023/05/07 10:08:02;;;;;;;16.25;6.38;;;;;;;;;;4786726;29;20420;-64
2023/05/07 10:10:36;;;;;;;12.93;6.63;;;;;;;;;;4828829;29;20054;-63
2023/05/07 10:13:11;;;;;;;15.07;6.47;;;;;;;;;;4785711;29;20058;-63
2023/05/07 10:15:47;;;;;;;13.35;6.13;;;;;;;;;;4841363;29;20070;-63
2023/05/07 10:18:23;;;;;;;11.35;7.05;;;;;;;;;;4801850;29;20523;-62
2023/05/07 10:20:54;;;;;;;12.35;7.22;;;;;;;;;;4820073;29;20206;-63
2023/05/07 10:23:26;;;;;;;10.18;6.13;;;;;;;;;;4819901;29;20062;-63
2023/05/07 10:26:00;;;;;;;10.63;6.30;;;;;;;;;;4837633;29;20054;-63
2023/05/07 10:28:36;;;;;;;16.67;7.18;;;;;;;;;;4859573;29;20153;-63
2023/05/07 10:31:32;;;;;;;10.73;6.22;;;;;;;;;;4873391;29;20060;-63
2023/05/07 10:34:08;;;;;;;15.35;7.25;;;;;;;;;;4892930;29;20390;-63
2023/05/07 10:36:39;;;;;;;14.07;7.10;;;;;;;;;;4874454;29;20057;-62
2023/05/07 10:39:10;;;;;;;12.40;6.38;;;;;;;;;;4908398;29;20056;-63
2023/05/07 10:41:41;;;;;;;13.48;7.82;;;;;;;;;;4893461;29;20067;-64
2023/05/07 10:44:11;;;;;;;17.58;8.70;;;;;;;;;;4930818;29;20056;-62
2023/05/07 10:46:42;;;;;;;14.70;7.53;;;;;;;;;;4930887;29;20066;-64
2023/05/07 10:49:20;;;;;;;14.65;7.50;;;;;;;;;;4913547;29;20055;-62
2023/05/07 10:52:16;;;;;;;11.02;6.72;;;;;;;;;;4912450;29;20063;-63
2023/05/07 10:55:18;;;;;;;14.23;6.72;;;;;;;;;;4922786;29;20060;-63
2023/05/07 10:58:28;;;;;;;13.02;6.78;;;;;;;;;;4920579;29;20060;-63
2023/05/07 11:01:14;;;;;;;11.07;6.95;;;;;;;;;;4930704;29;20051;-63
2023/05/07 11:04:15;;;;;;;11.95;6.63;;;;;;;;;;4921073;29;20083;-63
2023/05/07 11:07:09;;;;;;;12.48;6.45;;;;;;;;;;4863865;29;20155;-65
2023/05/07 11:10:04;;;;;;;16.05;6.88;;;;;;;;;;4893005;29;20060;-63
2023/05/07 11:12:51;;;;;;;13.63;6.80;;;;;;;;;;4912662;29;20048;-65
2023/05/07 11:15:43;;;;;;;14.02;7.35;;;;;;;;;;4912342;29;20056;-62
2023/05/07 11:18:21;;;;;;;13.25;6.50;;;;;;;;;;4905372;29;20672;-63
2023/05/07 11:20:54;;;;;;;12.55;6.90;;;;;;;;;;4889046;29;20093;-63
2023/05/07 11:23:37;;;;;;;12.00;6.70;;;;;;;;;;4878612;29;20155;-63
2023/05/07 11:26:18;;;;;;;13.98;6.90;;;;;;;;;;4892512;29;20056;-63
2023/05/07 11:28:50;;;;;;;9.93;6.35;;;;;;;;;;4892498;29;20053;-64
2023/05/07 11:31:23;;;;;;;10.98;6.63;;;;;;;;;;4857447;29;20056;-64
2023/05/07 11:33:55;;;;;;;10.95;6.57;;;;;;;;;;4836821;29;20054;-63
2023/05/07 11:36:26;;;;;;;12.02;6.53;;;;;;;;;;4855017;29;20069;-64
2023/05/07 11:38:56;;;;;;;11.27;6.55;;;;;;;;;;4836590;29;20055;-63
2023/05/07 11:41:38;;;;;;;14.85;6.68;;;;;;;;;;4801345;29;20086;-63
2023/05/07 11:44:11;;;;;;;16.20;7.40;;;;;;;;;;4794451;29;20789;-64
2023/05/07 11:46:44;;;;;;;21.23;7.38;;;;;;;;;;4818328;29;20490;-64
2023/05/07 11:49:15;;;;;;;14.18;7.13;;;;;;;;;;4818779;29;20055;-63
2023/05/07 11:51:46;;;;;;;10.93;6.90;;;;;;;;;;4804468;29;20162;-64
2023/05/07 11:54:17;;;;;;;14.27;6.82;;;;;;;;;;4850900;29;20056;-64
2023/05/07 11:56:47;;;;;;;14.20;6.15;;;;;;;;;;4900207;29;20090;-63
2023/05/07 11:59:19;;;;;;;13.88;6.53;;;;;;;;;;4949784;29;20059;-63
2023/05/07 12:01:49;;;;;;;11.52;6.93;;;;;;;;;;4933668;29;20431;-65
2023/05/07 12:04:22;;;;;;;10.88;6.28;;;;;;;;;;4949657;29;20052;-64
2023/05/07 12:06:55;;;;;;;11.38;6.38;;;;;;;;;;4954490;28;20546;-67
2023/05/07 12:09:26;;;;;;;11.73;5.75;;;;;;;;;;4940783;28;20065;-65
2023/05/07 12:11:56;;;;;;;10.35;6.28;;;;;;;;;;4984923;28;20050;-64
2023/05/07 12:14:29;;;;;;;14.88;7.20;;;;;;;;;;4987487;28;20053;-63
2023/05/07 12:17:02;;;;;;;13.77;8.20;;;;;;;;;;5034239;28;20389;-65
2023/05/07 12:19:35;;;;;;;15.45;7.95;;;;;;;;;;5021808;28;20512;-63
2023/05/07 12:22:09;;;;;;;14.70;8.38;;;;;;;;;;5038511;28;20461;-64
2023/05/07 12:24:58;;;;;;;13.80;7.57;;;;;;;;;;5071256;28;20071;-64
2023/05/07 12:27:30;;;;;;;15.52;7.20;;;;;;;;;;5004629;28;20436;-65
2023/05/07 12:30:00;;;;;;;12.00;6.80;;;;;;;;;;5037834;28;20536;-64
2023/05/07 12:32:30;;;;;;;25.20;12.38;;;;;;;;;;5037628;28;20523;-64
2023/05/07 12:35:00;;;;;;;25.40;11.68;;;;;;;;;;5070821;28;20060;-65
2023/05/07 12:37:30;;;;;;;15.95;8.82;;;;;;;;;;5069900;28;20063;-64
2023/05/07 12:40:11;;;;;;;10.32;5.82;;;;;;;;;;5020969;28;20053;-64
2023/05/07 12:42:42;;;;;;;134.07;75.93;;;;;;;;;;5036507;28;20063;-64
2023/05/07 12:45:15;;;;;;;12.77;7.13;;;;;;;;;;5069517;28;20059;-64
2023/05/07 12:47:47;;;;;;;6.47;4.18;;;;;;;;;;5101547;28;20059;-65
2023/05/07 12:50:20;;;;;;;9.45;4.63;;;;;;;;;;5069523;28;20069;-64
2023/05/07 12:52:50;;;;;;;7.53;3.90;;;;;;;;;;5085878;28;20535;-64
2023/05/07 12:55:21;;;;;;;12.00;5.88;;;;;;;;;;5052971;28;20048;-63
2023/05/07 12:57:53;;;;;;;19.67;8.82;;;;;;;;;;5019380;28;20048;-64
2023/05/07 13:00:35;;;;;;;8.02;4.03;;;;;;;;;;5069313;28;20424;-64
2023/05/07 13:03:05;;;;;;;9.93;3.95;;;;;;;;;;5036219;28;20071;-64
2023/05/07 13:05:37;;;;;;;7.53;4.00;;;;;;;;;;5069296;28;20055;-64
2023/05/07 13:08:09;;;;;;;10.18;3.90;;;;;;;;;;5048826;28;20060;-64
2023/05/07 13:10:39;;;;;;;7.97;3.30;;;;;;;;;;5048818;28;20057;-64
2023/05/07 13:13:10;;;;;;;6.90;3.75;;;;;;;;;;5049392;28;20057;-65
2023/05/07 13:15:40;;;;;;;6.95;4.10;;;;;;;;;;5016034;28;20536;-65
2023/05/07 13:18:11;;;;;;;5.95;3.53;;;;;;;;;;5032214;28;20049;-65
2023/05/07 13:20:41;;;;;;;7.05;3.10;;;;;;;;;;5040351;28;20427;-65
2023/05/07 13:23:11;;;;;;;7.63;3.63;;;;;;;;;;5072871;28;20063;-65
2023/05/07 13:25:41;;;;;;;44.47;18.98;;;;;;;;;;5071877;28;20440;-65
2023/05/07 13:28:12;;;;;;;10.07;4.82;;;;;;;;;;5089352;28;20067;-65
2023/05/07 13:30:42;;;;;;;8.43;4.22;;;;;;;;;;4996726;28;20422;-65
2023/05/07 13:33:13;;;;;;;7.40;4.25;;;;;;;;;;5017396;28;20066;-64
2023/05/07 13:35:43;;;;;;;8.50;3.00;;;;;;;;;;4929246;28;2299093;-64
2023/05/07 13:38:13;;;;;;;7.13;2.95;;;;;;;;;;4994400;28;20050;-64
2023/05/07 13:40:43;;;;;;;5.80;3.85;;;;;;;;;;4994160;28;20090;-64
2023/05/07 13:43:14;;;;;;;5.95;3.20;;;;;;;;;;5010085;28;20058;-65
2023/05/07 13:45:44;;;;;;;6.40;2.80;;;;;;;;;;5026833;28;20053;-64
2023/05/07 13:48:14;;;;;;;6.05;3.50;;;;;;;;;;5053521;28;20053;-65
2023/05/07 13:50:45;;;;;;;7.25;4.10;;;;;;;;;;5069598;28;20049;-65
2023/05/07 13:53:17;;;;;;;10.43;3.10;;;;;;;;;;5069730;28;20048;-65
2023/05/07 13:55:48;;;;;;;7.68;3.03;;;;;;;;;;5036160;28;20059;-65
2023/05/07 13:58:18;;;;;;;5.05;3.38;;;;;;;;;;5069436;28;20504;-65
2023/05/07 14:00:48;;;;;;;9.25;3.90;;;;;;;;;;5069205;28;20048;-65
2023/05/07 14:03:19;;;;;;;7.45;3.47;;;;;;;;;;5029325;28;20045;-67
2023/05/07 14:05:49;;;;;;;9.48;5.10;;;;;;;;;;5011988;28;20061;-66
2023/05/07 14:08:19;;;;;;;5.03;2.67;;;;;;;;;;5032503;28;20068;-65
2023/05/07 14:10:49;;;;;;;6.15;3.63;;;;;;;;;;5069219;28;20049;-65
2023/05/07 14:13:19;;;;;;;11.32;6.70;;;;;;;;;;5069430;28;20528;-65
2023/05/07 14:15:52;;;;;;;7.75;3.35;;;;;;;;;;5028982;28;20053;-65
2023/05/07 14:18:22;;;;;;;6.72;4.35;;;;;;;;;;4989575;28;20050;-65
2023/05/07 14:20:53;;;;;;;6.93;3.08;;;;;;;;;;4941604;28;20053;-66
2023/05/07 14:23:26;;;;;;;7.07;3.15;;;;;;;;;;4970049;28;20047;-66
2023/05/07 14:25:57;;;;;;;6.60;3.50;;;;;;;;;;4969286;28;20051;-65
2023/05/07 14:28:27;;;;;;;5.35;2.72;;;;;;;;;;4952344;28;20062;-66
2023/05/07 14:30:57;;;;;;;7.38;2.72;;;;;;;;;;4968749;28;20050;-65
2023/05/07 14:33:27;;;;;;;6.97;3.70;;;;;;;;;;4940774;28;20182;-66
2023/05/07 14:35:57;;;;;;;16.05;6.57;;;;;;;;;;5017498;28;20057;-65
2023/05/07 14:38:27;;;;;;;8.93;3.88;;;;;;;;;;5017464;28;20049;-65
2023/05/07 14:40:57;;;;;;;5.93;3.50;;;;;;;;;;4993293;28;20058;-65
2023/05/07 14:43:27;;;;;;;6.85;3.40;;;;;;;;;;4994222;28;20054;-66
2023/05/07 14:45:57;;;;;;;10.38;7.15;;;;;;;;;;4994802;28;20061;-65
2023/05/07 14:48:27;;;;;;;6.97;4.55;;;;;;;;;;4994079;28;20075;-65
2023/05/07 14:50:57;;;;;;;10.48;3.90;;;;;;;;;;5048608;28;20052;-65
2023/05/07 14:53:27;;;;;;;6.63;3.38;;;;;;;;;;5054747;28;20044;-65
2023/05/07 14:55:57;;;;;;;9.45;5.10;;;;;;;;;;5088682;28;20136;-66
2023/05/07 14:58:27;;;;;;;5.25;2.60;;;;;;;;;;5088257;28;20048;-66
2023/05/07 15:00:57;;;;;;;5.50;2.30;;;;;;;;;;5108424;27;20077;-65
2023/05/07 15:03:28;;;;;;;6.90;3.92;;;;;;;;;;5131642;27;20050;-66